CheckWX is a tool to help pilots better visualize weather data.  It is not intended as a substitute for an official pre-flight weather briefing.

14:49:20 UTC

CYKA TAF
Kamloops Airport
Kamloops, Canada
TAF CYKA 201238Z 2013/2101 10006KT P6SM FEW200 RMK NXT FCST BY 201900Z

Aug-20@
13:00 UTC

Aug-20 @ 13:00 UTC

Aug-21@
01:00 UTC

Aug-21 @ 01:00 UTC

TAF CYKA 201238Z 2013/2101 10006KT P6SM FEW200 RMK NXT FCST BY 201900Z
Wind
  • 100° at 6 KTS
Cloud Levels
  • Few at 20,000' AGL